createdAt,value
2023-01-26T05:06:02.061Z,-0.50
2023-01-26T05:08:30.421Z,-0.60
2023-01-26T05:10:59.647Z,-0.50
2023-01-26T05:13:28.390Z,-0.60
2023-01-26T05:15:56.978Z,-0.50
2023-01-26T05:18:25.690Z,-0.40
2023-01-26T17:58:21.470Z,2.30
2023-01-26T18:00:49.537Z,2.30
2023-01-26T18:03:17.956Z,2.30
2023-01-26T18:05:59.536Z,2.30
2023-01-26T18:08:28.055Z,2.30
2023-01-26T18:10:59.789Z,2.30
2023-01-26T18:13:30.103Z,2.40
2023-01-26T18:16:16.537Z,2.40
2023-01-26T18:18:44.874Z,2.40
2023-01-26T18:21:15.051Z,2.40
2023-01-26T18:23:45.614Z,2.40
2023-01-26T18:26:13.801Z,2.30
2023-01-26T18:28:43.660Z,2.40
2023-01-26T18:31:12.773Z,2.40
2023-01-26T18:33:40.988Z,2.40
2023-01-26T18:36:11.971Z,2.30
2023-01-26T18:38:40.208Z,2.40
2023-01-26T18:41:12.194Z,2.40
2023-01-26T18:43:42.092Z,2.40
2023-01-26T18:46:11.064Z,2.40
2023-01-26T18:48:39.159Z,2.40
2023-01-26T18:51:08.706Z,2.50
2023-01-26T18:53:38.615Z,2.40
2023-01-26T18:56:08.647Z,2.50
2023-01-26T18:58:37.606Z,2.40
2023-01-26T19:01:10.660Z,2.50
2023-01-26T19:03:39.927Z,2.40
2023-01-26T19:06:18.096Z,2.50
2023-01-26T19:08:46.575Z,2.50
2023-01-26T19:11:15.248Z,2.50
2023-01-26T19:13:45.448Z,2.50
2023-01-26T19:16:14.912Z,2.50
2023-01-26T19:18:42.893Z,2.40
2023-01-26T19:21:11.103Z,2.50
2023-01-26T19:23:39.962Z,2.50
2023-01-26T19:26:12.391Z,2.50
2023-01-26T19:28:41.936Z,2.50
2023-01-26T19:31:10.641Z,2.50
2023-01-26T19:33:40.138Z,2.50
2023-01-26T19:36:09.611Z,2.50
2023-01-26T19:38:39.891Z,2.50
2023-01-26T19:41:08.206Z,2.50
2023-01-26T19:43:45.597Z,2.50
2023-01-26T19:46:21.272Z,2.50
2023-01-26T19:48:59.894Z,2.50
2023-01-26T19:51:29.400Z,2.50
2023-01-26T19:53:59.014Z,2.50
2023-01-26T19:56:28.417Z,2.50
2023-01-26T19:58:57.925Z,2.50
2023-01-26T20:01:27.061Z,2.50
2023-01-26T20:03:58.922Z,2.50
2023-01-26T20:06:29.998Z,2.50
2023-01-26T20:08:58.292Z,2.50
2023-01-26T20:11:28.941Z,2.50
2023-01-26T20:13:57.659Z,2.50
2023-01-26T20:16:28.038Z,2.50
2023-01-26T20:18:56.750Z,2.50
2023-01-26T20:21:25.266Z,2.50
2023-01-26T20:23:56.007Z,2.40
2023-01-26T20:26:24.986Z,2.40
2023-01-26T20:28:56.169Z,2.40
2023-01-26T20:31:26.763Z,2.40
2023-01-26T20:33:55.675Z,2.40
2023-01-26T20:36:25.398Z,2.40
2023-01-26T20:38:55.182Z,2.40
2023-01-26T20:41:24.898Z,2.40
2023-01-26T20:44:00.408Z,2.40
2023-01-26T20:46:31.418Z,2.40
2023-01-26T20:48:59.533Z,2.40
2023-01-26T20:51:30.320Z,2.40
2023-01-26T20:54:07.986Z,2.40
2023-01-26T20:56:36.835Z,2.40
2023-01-26T20:59:06.092Z,2.40
2023-01-26T21:01:36.352Z,2.50
2023-01-26T21:04:06.500Z,2.40
2023-01-26T21:06:35.006Z,2.40
2023-01-26T21:09:03.255Z,2.40
2023-01-26T21:11:32.940Z,2.40
2023-01-26T21:14:01.892Z,2.40
2023-01-26T21:16:30.643Z,2.40
2023-01-26T21:18:58.917Z,2.40
2023-01-26T21:21:27.252Z,2.40
2023-01-26T21:23:55.400Z,2.40
2023-01-26T21:26:25.327Z,2.40
2023-01-26T21:28:55.975Z,2.40
2023-01-26T21:31:26.056Z,2.40
2023-01-26T21:33:54.889Z,2.30
2023-01-26T21:36:24.718Z,2.40
2023-01-26T21:38:54.149Z,2.40
2023-01-26T21:41:41.480Z,2.40
2023-01-26T21:44:12.679Z,2.40
2023-01-26T21:46:41.273Z,2.40
2023-01-26T21:49:10.633Z,2.40
2023-01-26T21:51:55.983Z,2.40
2023-01-26T21:54:24.041Z,2.40
2023-01-26T21:56:52.176Z,2.40
2023-01-26T21:59:20.606Z,2.40
2023-01-26T22:01:50.156Z,2.40
2023-01-26T22:04:20.320Z,2.40
2023-01-26T22:06:48.679Z,2.40
2023-01-26T22:09:18.068Z,2.40
2023-01-26T22:11:46.377Z,2.30
2023-01-26T22:14:16.160Z,2.30
2023-01-26T22:16:45.634Z,2.30
2023-01-26T22:19:14.266Z,2.30
2023-01-26T22:21:42.441Z,2.20
2023-01-26T22:24:12.242Z,2.20
2023-01-26T22:26:40.722Z,2.20
2023-01-26T22:29:08.803Z,2.20
2023-01-26T22:31:36.940Z,2.20
2023-01-26T22:34:07.019Z,2.20
2023-01-26T22:36:35.359Z,2.10
2023-01-26T22:39:03.473Z,2.10
2023-01-26T22:41:31.690Z,2.00
2023-01-26T22:44:00.868Z,2.00
2023-01-26T22:46:30.697Z,2.00
2023-01-26T22:48:59.939Z,2.00
